sensor_id;sensor_type;location;lat;lon;timestamp;P1;durP1;ratioP1;P2;durP2;ratioP2
72586;SDS011;60621;49.576;11.024;2023-03-01T00:00:38;19.45;;;9.18;;
72586;SDS011;60621;49.576;11.024;2023-03-01T00:01:39;18.98;;;9.48;;
72586;SDS011;60621;49.576;11.024;2023-03-01T00:02:41;21.05;;;8.77;;
72586;SDS011;60621;49.576;11.024;2023-03-01T00:03:43;19.67;;;9.25;;
72586;SDS011;60621;49.576;11.024;2023-03-01T00:04:44;19.23;;;9.20;;
72586;SDS011;60621;49.576;11.024;2023-03-01T00:05:46;21.02;;;9.77;;
72586;SDS011;60621;49.576;11.024;2023-03-01T00:06:48;21.30;;;9.13;;
72586;SDS011;60621;49.576;11.024;2023-03-01T00:07:52;20.98;;;9.05;;
72586;SDS011;60621;49.576;11.024;2023-03-01T00:08:54;23.10;;;9.55;;
72586;SDS011;60621;49.576;11.024;2023-03-01T00:09:55;20.13;;;8.75;;
72586;SDS011;60621;49.576;11.024;2023-03-01T00:11:04;18.40;;;8.98;;
72586;SDS011;60621;49.576;11.024;2023-03-01T00:12:08;20.48;;;9.52;;
72586;SDS011;60621;49.576;11.024;2023-03-01T00:13:10;20.13;;;9.35;;
72586;SDS011;60621;49.576;11.024;2023-03-01T00:14:12;20.65;;;9.23;;
72586;SDS011;60621;49.576;11.024;2023-03-01T00:15:14;21.40;;;9.63;;
72586;SDS011;60621;49.576;11.024;2023-03-01T00:16:20;20.17;;;9.20;;
72586;SDS011;60621;49.576;11.024;2023-03-01T00:17:27;20.63;;;8.73;;
72586;SDS011;60621;49.576;11.024;2023-03-01T00:18:28;19.73;;;8.90;;
72586;SDS011;60621;49.576;11.024;2023-03-01T00:19:30;19.27;;;8.75;;
72586;SDS011;60621;49.576;11.024;2023-03-01T00:20:34;20.50;;;9.38;;
72586;SDS011;60621;49.576;11.024;2023-03-01T00:21:35;23.30;;;9.52;;
72586;SDS011;60621;49.576;11.024;2023-03-01T00:22:37;19.58;;;9.05;;
72586;SDS011;60621;49.576;11.024;2023-03-01T00:23:38;20.00;;;9.18;;
72586;SDS011;60621;49.576;11.024;2023-03-01T00:24:40;19.90;;;8.68;;
72586;SDS011;60621;49.576;11.024;2023-03-01T00:25:42;20.02;;;9.13;;
72586;SDS011;60621;49.576;11.024;2023-03-01T00:26:44;20.67;;;9.00;;
72586;SDS011;60621;49.576;11.024;2023-03-01T00:27:46;22.10;;;9.60;;
72586;SDS011;60621;49.576;11.024;2023-03-01T00:28:48;20.48;;;8.82;;
72586;SDS011;60621;49.576;11.024;2023-03-01T00:29:50;19.77;;;8.95;;
72586;SDS011;60621;49.576;11.024;2023-03-01T00:30:53;18.35;;;8.90;;
72586;SDS011;60621;49.576;11.024;2023-03-01T00:31:54;19.00;;;8.82;;
72586;SDS011;60621;49.576;11.024;2023-03-01T00:32:56;19.63;;;9.38;;
72586;SDS011;60621;49.576;11.024;2023-03-01T00:33:59;20.88;;;9.68;;
72586;SDS011;60621;49.576;11.024;2023-03-01T00:35:02;20.08;;;8.65;;
72586;SDS011;60621;49.576;11.024;2023-03-01T00:36:04;18.90;;;8.88;;
72586;SDS011;60621;49.576;11.024;2023-03-01T00:37:06;20.67;;;8.88;;
72586;SDS011;60621;49.576;11.024;2023-03-01T00:38:08;17.50;;;8.65;;
72586;SDS011;60621;49.576;11.024;2023-03-01T00:39:11;20.27;;;9.68;;
72586;SDS011;60621;49.576;11.024;2023-03-01T00:40:14;20.30;;;9.05;;
72586;SDS011;60621;49.576;11.024;2023-03-01T00:41:18;19.15;;;8.70;;
72586;SDS011;60621;49.576;11.024;2023-03-01T00:42:20;20.73;;;8.82;;
72586;SDS011;60621;49.576;11.024;2023-03-01T00:43:23;18.83;;;8.68;;
72586;SDS011;60621;49.576;11.024;2023-03-01T00:44:24;19.65;;;9.07;;
72586;SDS011;60621;49.576;11.024;2023-03-01T00:45:26;19.58;;;8.65;;
72586;SDS011;60621;49.576;11.024;2023-03-01T00:46:28;20.52;;;9.50;;
72586;SDS011;60621;49.576;11.024;2023-03-01T00:47:31;18.52;;;9.13;;
72586;SDS011;60621;49.576;11.024;2023-03-01T00:48:33;19.40;;;8.82;;
72586;SDS011;60621;49.576;11.024;2023-03-01T00:49:35;19.60;;;8.85;;
72586;SDS011;60621;49.576;11.024;2023-03-01T00:50:37;18.50;;;8.85;;
72586;SDS011;60621;49.576;11.024;2023-03-01T00:51:38;19.25;;;9.10;;
72586;SDS011;60621;49.576;11.024;2023-03-01T00:52:42;19.38;;;8.50;;
72586;SDS011;60621;49.576;11.024;2023-03-01T00:53:44;17.98;;;8.57;;
72586;SDS011;60621;49.576;11.024;2023-03-01T00:54:46;22.20;;;8.93;;
72586;SDS011;60621;49.576;11.024;2023-03-01T00:55:47;19.73;;;9.00;;
72586;SDS011;60621;49.576;11.024;2023-03-01T00:56:49;18.90;;;8.93;;
72586;SDS011;60621;49.576;11.024;2023-03-01T00:57:50;19.33;;;8.68;;
72586;SDS011;60621;49.576;11.024;2023-03-01T00:58:52;20.17;;;8.73;;
72586;SDS011;60621;49.576;11.024;2023-03-01T00:59:54;19.63;;;9.05;;
72586;SDS011;60621;49.576;11.024;2023-03-01T01:00:55;18.52;;;8.48;;
72586;SDS011;60621;49.576;11.024;2023-03-01T01:01:57;19.30;;;8.52;;
72586;SDS011;60621;49.576;11.024;2023-03-01T01:03:00;17.58;;;8.30;;
72586;SDS011;60621;49.576;11.024;2023-03-01T01:04:09;22.10;;;8.98;;
72586;SDS011;60621;49.576;11.024;2023-03-01T01:05:12;21.00;;;8.68;;
72586;SDS011;60621;49.576;11.024;2023-03-01T01:06:15;19.90;;;9.07;;
72586;SDS011;60621;49.576;11.024;2023-03-01T01:07:21;19.25;;;9.20;;
72586;SDS011;60621;49.576;11.024;2023-03-01T01:08:23;20.73;;;9.10;;
72586;SDS011;60621;49.576;11.024;2023-03-01T01:09:24;21.42;;;8.88;;
72586;SDS011;60621;49.576;11.024;2023-03-01T01:10:26;18.38;;;9.02;;
72586;SDS011;60621;49.576;11.024;2023-03-01T01:11:28;21.08;;;9.60;;
72586;SDS011;60621;49.576;11.024;2023-03-01T01:12:30;20.30;;;9.10;;
72586;SDS011;60621;49.576;11.024;2023-03-01T01:13:32;17.58;;;8.60;;
72586;SDS011;60621;49.576;11.024;2023-03-01T01:14:34;18.30;;;9.18;;
72586;SDS011;60621;49.576;11.024;2023-03-01T01:15:36;20.13;;;9.00;;
72586;SDS011;60621;49.576;11.024;2023-03-01T01:16:38;18.23;;;8.40;;
72586;SDS011;60621;49.576;11.024;2023-03-01T01:17:40;19.65;;;9.23;;
72586;SDS011;60621;49.576;11.024;2023-03-01T01:18:42;19.55;;;9.50;;
72586;SDS011;60621;49.576;11.024;2023-03-01T01:19:44;18.30;;;8.63;;
72586;SDS011;60621;49.576;11.024;2023-03-01T01:20:45;19.67;;;9.38;;
72586;SDS011;60621;49.576;11.024;2023-03-01T01:21:47;20.52;;;9.00;;
72586;SDS011;60621;49.576;11.024;2023-03-01T01:22:49;19.73;;;8.20;;
72586;SDS011;60621;49.576;11.024;2023-03-01T01:23:52;19.20;;;9.15;;
72586;SDS011;60621;49.576;11.024;2023-03-01T01:24:54;18.92;;;8.63;;
72586;SDS011;60621;49.576;11.024;2023-03-01T01:25:55;18.23;;;8.38;;
72586;SDS011;60621;49.576;11.024;2023-03-01T01:26:57;21.02;;;9.15;;
72586;SDS011;60621;49.576;11.024;2023-03-01T01:27:59;20.92;;;9.40;;
72586;SDS011;60621;49.576;11.024;2023-03-01T01:29:00;19.10;;;8.38;;
72586;SDS011;60621;49.576;11.024;2023-03-01T01:30:04;19.75;;;9.10;;
72586;SDS011;60621;49.576;11.024;2023-03-01T01:31:06;18.40;;;8.88;;
72586;SDS011;60621;49.576;11.024;2023-03-01T01:32:07;18.88;;;8.40;;
72586;SDS011;60621;49.576;11.024;2023-03-01T01:33:09;18.15;;;8.13;;
72586;SDS011;60621;49.576;11.024;2023-03-01T01:34:15;20.48;;;9.55;;
72586;SDS011;60621;49.576;11.024;2023-03-01T01:35:18;20.58;;;8.75;;
72586;SDS011;60621;49.576;11.024;2023-03-01T01:36:20;18.90;;;8.88;;
72586;SDS011;60621;49.576;11.024;2023-03-01T01:37:21;20.42;;;9.00;;
72586;SDS011;60621;49.576;11.024;2023-03-01T01:38:23;21.70;;;8.98;;
72586;SDS011;60621;49.576;11.024;2023-03-01T01:39:24;18.33;;;8.50;;
72586;SDS011;60621;49.576;11.024;2023-03-01T01:40:26;20.10;;;8.73;;
72586;SDS011;60621;49.576;11.024;2023-03-01T01:41:28;19.92;;;8.82;;
72586;SDS011;60621;49.576;11.024;2023-03-01T01:42:30;18.10;;;8.48;;
72586;SDS011;60621;49.576;11.024;2023-03-01T01:43:36;20.10;;;8.50;;
72586;SDS011;60621;49.576;11.024;2023-03-01T01:44:45;19.77;;;8.98;;
72586;SDS011;60621;49.576;11.024;2023-03-01T01:45:47;20.65;;;9.30;;
72586;SDS011;60621;49.576;11.024;2023-03-01T01:46:53;19.00;;;8.73;;
72586;SDS011;60621;49.576;11.024;2023-03-01T01:48:05;18.13;;;8.30;;
72586;SDS011;60621;49.576;11.024;2023-03-01T01:49:25;18.20;;;8.73;;
72586;SDS011;60621;49.576;11.024;2023-03-01T01:50:32;21.25;;;9.60;;
72586;SDS011;60621;49.576;11.024;2023-03-01T01:51:40;20.70;;;8.70;;
72586;SDS011;60621;49.576;11.024;2023-03-01T01:52:45;20.98;;;9.00;;
72586;SDS011;60621;49.576;11.024;2023-03-01T01:53:51;18.98;;;8.05;;
72586;SDS011;60621;49.576;11.024;2023-03-01T01:54:59;18.40;;;8.27;;
72586;SDS011;60621;49.576;11.024;2023-03-01T01:56:04;19.27;;;8.75;;
72586;SDS011;60621;49.576;11.024;2023-03-01T01:57:14;18.40;;;8.98;;
72586;SDS011;60621;49.576;11.024;2023-03-01T01:58:20;20.25;;;8.70;;
72586;SDS011;60621;49.576;11.024;2023-03-01T01:59:23;20.65;;;9.20;;
72586;SDS011;60621;49.576;11.024;2023-03-01T02:00:27;19.55;;;9.10;;
72586;SDS011;60621;49.576;11.024;2023-03-01T02:01:29;21.33;;;9.25;;
72586;SDS011;60621;49.576;11.024;2023-03-01T02:02:31;17.52;;;8.27;;
72586;SDS011;60621;49.576;11.024;2023-03-01T02:03:33;21.38;;;9.05;;
72586;SDS011;60621;49.576;11.024;2023-03-01T02:04:41;18.27;;;8.93;;
72586;SDS011;60621;49.576;11.024;2023-03-01T02:07:07;21.35;;;9.48;;
72586;SDS011;60621;49.576;11.024;2023-03-01T02:08:15;17.33;;;8.30;;
72586;SDS011;60621;49.576;11.024;2023-03-01T02:09:20;18.98;;;8.75;;
72586;SDS011;60621;49.576;11.024;2023-03-01T02:10:24;19.52;;;8.38;;
72586;SDS011;60621;49.576;11.024;2023-03-01T02:11:27;20.00;;;8.73;;
72586;SDS011;60621;49.576;11.024;2023-03-01T02:12:30;19.70;;;8.45;;
72586;SDS011;60621;49.576;11.024;2023-03-01T02:13:32;21.23;;;9.30;;
72586;SDS011;60621;49.576;11.024;2023-03-01T02:15:37;20.88;;;8.60;;
72586;SDS011;60621;49.576;11.024;2023-03-01T02:16:40;20.67;;;9.07;;
72586;SDS011;60621;49.576;11.024;2023-03-01T02:17:42;18.92;;;8.48;;
72586;SDS011;60621;49.576;11.024;2023-03-01T02:18:44;18.75;;;8.35;;
72586;SDS011;60621;49.576;11.024;2023-03-01T02:22:25;20.20;;;8.93;;
72586;SDS011;60621;49.576;11.024;2023-03-01T02:23:31;20.17;;;8.07;;
72586;SDS011;60621;49.576;11.024;2023-03-01T02:24:40;18.90;;;8.13;;
72586;SDS011;60621;49.576;11.024;2023-03-01T02:28:36;20.33;;;8.45;;
72586;SDS011;60621;49.576;11.024;2023-03-01T02:29:39;18.27;;;8.07;;
72586;SDS011;60621;49.576;11.024;2023-03-01T02:30:45;22.25;;;9.73;;
72586;SDS011;60621;49.576;11.024;2023-03-01T02:32:07;18.77;;;8.27;;
72586;SDS011;60621;49.576;11.024;2023-03-01T02:33:09;21.38;;;8.55;;
72586;SDS011;60621;49.576;11.024;2023-03-01T02:34:12;22.73;;;9.18;;
72586;SDS011;60621;49.576;11.024;2023-03-01T02:35:19;19.55;;;8.75;;
72586;SDS011;60621;49.576;11.024;2023-03-01T02:36:23;21.48;;;9.13;;
72586;SDS011;60621;49.576;11.024;2023-03-01T02:37:30;21.55;;;9.02;;
72586;SDS011;60621;49.576;11.024;2023-03-01T02:38:32;20.77;;;9.23;;
72586;SDS011;60621;49.576;11.024;2023-03-01T02:39:37;19.00;;;8.75;;
72586;SDS011;60621;49.576;11.024;2023-03-01T02:40:43;23.27;;;9.60;;
72586;SDS011;60621;49.576;11.024;2023-03-01T02:41:46;20.35;;;8.95;;
72586;SDS011;60621;49.576;11.024;2023-03-01T02:42:51;20.50;;;8.65;;
72586;SDS011;60621;49.576;11.024;2023-03-01T02:43:57;20.80;;;8.35;;
72586;SDS011;60621;49.576;11.024;2023-03-01T02:44:58;20.83;;;8.68;;
72586;SDS011;60621;49.576;11.024;2023-03-01T02:46:05;19.83;;;8.82;;
72586;SDS011;60621;49.576;11.024;2023-03-01T02:52:47;21.17;;;9.27;;
72586;SDS011;60621;49.576;11.024;2023-03-01T02:55:22;19.50;;;8.50;;
72586;SDS011;60621;49.576;11.024;2023-03-01T02:56:24;22.33;;;9.40;;
72586;SDS011;60621;49.576;11.024;2023-03-01T02:57:27;20.20;;;9.02;;
72586;SDS011;60621;49.576;11.024;2023-03-01T02:58:30;20.55;;;9.30;;
72586;SDS011;60621;49.576;11.024;2023-03-01T02:59:32;21.13;;;9.25;;
72586;SDS011;60621;49.576;11.024;2023-03-01T03:00:41;20.33;;;8.45;;
72586;SDS011;60621;49.576;11.024;2023-03-01T03:01:48;21.92;;;8.90;;
72586;SDS011;60621;49.576;11.024;2023-03-01T03:02:50;19.83;;;9.25;;
72586;SDS011;60621;49.576;11.024;2023-03-01T03:03:53;18.42;;;8.75;;
72586;SDS011;60621;49.576;11.024;2023-03-01T03:04:54;18.25;;;8.40;;
72586;SDS011;60621;49.576;11.024;2023-03-01T03:05:56;19.42;;;9.40;;
72586;SDS011;60621;49.576;11.024;2023-03-01T03:06:58;19.75;;;9.05;;
72586;SDS011;60621;49.576;11.024;2023-03-01T03:08:01;20.58;;;8.95;;
72586;SDS011;60621;49.576;11.024;2023-03-01T03:09:04;20.23;;;8.90;;
72586;SDS011;60621;49.576;11.024;2023-03-01T03:10:07;19.42;;;8.55;;
72586;SDS011;60621;49.576;11.024;2023-03-01T03:11:12;19.48;;;9.18;;
72586;SDS011;60621;49.576;11.024;2023-03-01T03:12:13;19.67;;;9.27;;
72586;SDS011;60621;49.576;11.024;2023-03-01T03:13:15;19.35;;;8.60;;
72586;SDS011;60621;49.576;11.024;2023-03-01T03:14:17;19.17;;;8.75;;
72586;SDS011;60621;49.576;11.024;2023-03-01T03:15:19;21.17;;;9.77;;
72586;SDS011;60621;49.576;11.024;2023-03-01T03:16:22;19.98;;;9.23;;
72586;SDS011;60621;49.576;11.024;2023-03-01T03:17:23;22.23;;;9.45;;
72586;SDS011;60621;49.576;11.024;2023-03-01T03:18:25;20.75;;;9.38;;
72586;SDS011;60621;49.576;11.024;2023-03-01T03:19:27;22.88;;;9.63;;
72586;SDS011;60621;49.576;11.024;2023-03-01T03:20:28;18.58;;;8.85;;
72586;SDS011;60621;49.576;11.024;2023-03-01T03:21:31;17.80;;;8.57;;
72586;SDS011;60621;49.576;11.024;2023-03-01T03:22:33;20.20;;;9.13;;
72586;SDS011;60621;49.576;11.024;2023-03-01T03:23:35;20.85;;;9.23;;
72586;SDS011;60621;49.576;11.024;2023-03-01T03:24:37;20.63;;;9.63;;
72586;SDS011;60621;49.576;11.024;2023-03-01T03:25:39;21.05;;;9.07;;
72586;SDS011;60621;49.576;11.024;2023-03-01T03:26:41;21.27;;;9.30;;
72586;SDS011;60621;49.576;11.024;2023-03-01T03:27:43;24.13;;;9.60;;
72586;SDS011;60621;49.576;11.024;2023-03-01T03:28:46;21.55;;;9.25;;
72586;SDS011;60621;49.576;11.024;2023-03-01T03:29:47;20.90;;;9.30;;
72586;SDS011;60621;49.576;11.024;2023-03-01T03:30:49;19.10;;;8.55;;
72586;SDS011;60621;49.576;11.024;2023-03-01T03:31:51;21.77;;;9.55;;
72586;SDS011;60621;49.576;11.024;2023-03-01T03:32:52;21.77;;;9.00;;
72586;SDS011;60621;49.576;11.024;2023-03-01T03:33:54;18.52;;;8.70;;
72586;SDS011;60621;49.576;11.024;2023-03-01T03:34:57;22.40;;;8.90;;
72586;SDS011;60621;49.576;11.024;2023-03-01T03:35:58;18.95;;;8.77;;
72586;SDS011;60621;49.576;11.024;2023-03-01T03:37:00;20.15;;;9.07;;
72586;SDS011;60621;49.576;11.024;2023-03-01T03:38:04;20.65;;;9.18;;
72586;SDS011;60621;49.576;11.024;2023-03-01T03:39:07;20.70;;;8.65;;
72586;SDS011;60621;49.576;11.024;2023-03-01T03:40:09;22.58;;;8.50;;
72586;SDS011;60621;49.576;11.024;2023-03-01T03:41:16;19.90;;;9.05;;
72586;SDS011;60621;49.576;11.024;2023-03-01T03:42:18;19.15;;;8.48;;
72586;SDS011;60621;49.576;11.024;2023-03-01T03:43:21;20.95;;;9.18;;
72586;SDS011;60621;49.576;11.024;2023-03-01T03:44:24;18.05;;;8.70;;
72586;SDS011;60621;49.576;11.024;2023-03-01T03:45:25;19.30;;;8.27;;
72586;SDS011;60621;49.576;11.024;2023-03-01T03:46:27;20.98;;;9.18;;
72586;SDS011;60621;49.576;11.024;2023-03-01T03:47:28;19.42;;;8.88;;
72586;SDS011;60621;49.576;11.024;2023-03-01T03:48:30;18.83;;;8.70;;
72586;SDS011;60621;49.576;11.024;2023-03-01T03:49:31;17.83;;;8.75;;
72586;SDS011;60621;49.576;11.024;2023-03-01T03:50:33;18.85;;;8.88;;
72586;SDS011;60621;49.576;11.024;2023-03-01T03:51:35;18.55;;;8.20;;
72586;SDS011;60621;49.576;11.024;2023-03-01T03:52:36;19.40;;;8.70;;
72586;SDS011;60621;49.576;11.024;2023-03-01T03:53:38;18.83;;;8.50;;
72586;SDS011;60621;49.576;11.024;2023-03-01T03:54:40;20.25;;;8.88;;
72586;SDS011;60621;49.576;11.024;2023-03-01T03:55:42;23.35;;;9.40;;
72586;SDS011;60621;49.576;11.024;2023-03-01T03:56:45;20.83;;;8.77;;
72586;SDS011;60621;49.576;11.024;2023-03-01T03:57:47;19.17;;;8.80;;
72586;SDS011;60621;49.576;11.024;2023-03-01T03:58:55;19.50;;;8.18;;
72586;SDS011;60621;49.576;11.024;2023-03-01T03:59:56;21.50;;;8.85;;
72586;SDS011;60621;49.576;11.024;2023-03-01T04:00:58;20.63;;;8.88;;
72586;SDS011;60621;49.576;11.024;2023-03-01T04:02:01;19.92;;;8.95;;
72586;SDS011;60621;49.576;11.024;2023-03-01T04:03:03;20.67;;;8.85;;
72586;SDS011;60621;49.576;11.024;2023-03-01T04:04:05;19.73;;;8.45;;
72586;SDS011;60621;49.576;11.024;2023-03-01T04:06:11;21.92;;;8.32;;
72586;SDS011;60621;49.576;11.024;2023-03-01T04:07:12;19.23;;;8.63;;
72586;SDS011;60621;49.576;11.024;2023-03-01T04:08:14;18.70;;;8.98;;
72586;SDS011;60621;49.576;11.024;2023-03-01T04:09:15;18.05;;;7.93;;
72586;SDS011;60621;49.576;11.024;2023-03-01T04:10:18;19.02;;;8.43;;
72586;SDS011;60621;49.576;11.024;2023-03-01T04:11:19;18.67;;;8.65;;
72586;SDS011;60621;49.576;11.024;2023-03-01T04:12:27;19.42;;;8.48;;
72586;SDS011;60621;49.576;11.024;2023-03-01T04:13:28;23.02;;;9.38;;
72586;SDS011;60621;49.576;11.024;2023-03-01T04:14:30;19.95;;;9.02;;
72586;SDS011;60621;49.576;11.024;2023-03-01T04:15:32;22.08;;;9.18;;
72586;SDS011;60621;49.576;11.024;2023-03-01T04:16:34;18.45;;;8.73;;
72586;SDS011;60621;49.576;11.024;2023-03-01T04:17:35;19.23;;;8.43;;
72586;SDS011;60621;49.576;11.024;2023-03-01T04:18:37;17.92;;;8.60;;
72586;SDS011;60621;49.576;11.024;2023-03-01T04:19:38;18.00;;;8.65;;
72586;SDS011;60621;49.576;11.024;2023-03-01T04:20:41;19.67;;;8.70;;
72586;SDS011;60621;49.576;11.024;2023-03-01T04:21:43;17.92;;;7.88;;
72586;SDS011;60621;49.576;11.024;2023-03-01T04:22:45;20.38;;;8.90;;
72586;SDS011;60621;49.576;11.024;2023-03-01T04:23:48;19.83;;;8.88;;
72586;SDS011;60621;49.576;11.024;2023-03-01T04:24:49;19.00;;;9.40;;
72586;SDS011;60621;49.576;11.024;2023-03-01T04:25:52;18.67;;;8.57;;
72586;SDS011;60621;49.576;11.024;2023-03-01T04:26:56;22.08;;;9.02;;
72586;SDS011;60621;49.576;11.024;2023-03-01T04:27:57;18.63;;;8.98;;
72586;SDS011;60621;49.576;11.024;2023-03-01T04:28:58;20.40;;;8.73;;
72586;SDS011;60621;49.576;11.024;2023-03-01T04:30:01;21.38;;;9.18;;
72586;SDS011;60621;49.576;11.024;2023-03-01T04:31:06;19.85;;;9.25;;
72586;SDS011;60621;49.576;11.024;2023-03-01T04:32:15;19.50;;;8.48;;
72586;SDS011;60621;49.576;11.024;2023-03-01T04:33:17;19.48;;;8.65;;
72586;SDS011;60621;49.576;11.024;2023-03-01T04:34:19;23.67;;;9.43;;
72586;SDS011;60621;49.576;11.024;2023-03-01T04:35:21;20.02;;;8.80;;
72586;SDS011;60621;49.576;11.024;2023-03-01T04:36:24;18.42;;;8.60;;
72586;SDS011;60621;49.576;11.024;2023-03-01T04:37:28;15.88;;;8.18;;
72586;SDS011;60621;49.576;11.024;2023-03-01T04:38:30;20.67;;;9.45;;
72586;SDS011;60621;49.576;11.024;2023-03-01T04:39:32;20.05;;;8.68;;
72586;SDS011;60621;49.576;11.024;2023-03-01T04:40:34;19.35;;;9.30;;
72586;SDS011;60621;49.576;11.024;2023-03-01T04:41:36;20.73;;;8.90;;
72586;SDS011;60621;49.576;11.024;2023-03-01T04:42:37;20.92;;;9.45;;
72586;SDS011;60621;49.576;11.024;2023-03-01T04:43:39;17.35;;;8.65;;
72586;SDS011;60621;49.576;11.024;2023-03-01T04:44:40;19.42;;;8.93;;
72586;SDS011;60621;49.576;11.024;2023-03-01T04:45:42;18.33;;;8.30;;
72586;SDS011;60621;49.576;11.024;2023-03-01T04:46:44;19.70;;;9.00;;
72586;SDS011;60621;49.576;11.024;2023-03-01T04:47:45;18.20;;;8.48;;
72586;SDS011;60621;49.576;11.024;2023-03-01T04:48:48;18.95;;;8.45;;
72586;SDS011;60621;49.576;11.024;2023-03-01T04:49:50;18.92;;;8.70;;
72586;SDS011;60621;49.576;11.024;2023-03-01T04:50:51;21.23;;;9.20;;
72586;SDS011;60621;49.576;11.024;2023-03-01T04:51:53;19.17;;;9.23;;
72586;SDS011;60621;49.576;11.024;2023-03-01T04:52:54;19.40;;;8.82;;
72586;SDS011;60621;49.576;11.024;2023-03-01T04:53:59;21.05;;;9.40;;
72586;SDS011;60621;49.576;11.024;2023-03-01T04:55:01;20.65;;;8.93;;
72586;SDS011;60621;49.576;11.024;2023-03-01T04:58:07;21.48;;;8.88;;
72586;SDS011;60621;49.576;11.024;2023-03-01T04:59:09;18.92;;;8.60;;
72586;SDS011;60621;49.576;11.024;2023-03-01T05:00:13;24.17;;;9.18;;
72586;SDS011;60621;49.576;11.024;2023-03-01T05:01:21;19.63;;;8.68;;
72586;SDS011;60621;49.576;11.024;2023-03-01T05:02:23;21.25;;;8.95;;
72586;SDS011;60621;49.576;11.024;2023-03-01T05:03:24;20.77;;;8.63;;
72586;SDS011;60621;49.576;11.024;2023-03-01T05:04:26;19.67;;;8.60;;
72586;SDS011;60621;49.576;11.024;2023-03-01T05:05:30;20.73;;;9.35;;
72586;SDS011;60621;49.576;11.024;2023-03-01T05:06:33;21.55;;;9.02;;
72586;SDS011;60621;49.576;11.024;2023-03-01T05:07:35;19.95;;;9.40;;
72586;SDS011;60621;49.576;11.024;2023-03-01T05:08:37;21.13;;;9.13;;
72586;SDS011;60621;49.576;11.024;2023-03-01T05:09:39;21.45;;;9.02;;
72586;SDS011;60621;49.576;11.024;2023-03-01T05:10:41;17.80;;;8.75;;
72586;SDS011;60621;49.576;11.024;2023-03-01T05:11:43;18.75;;;8.52;;
72586;SDS011;60621;49.576;11.024;2023-03-01T05:12:44;22.77;;;9.77;;
72586;SDS011;60621;49.576;11.024;2023-03-01T05:14:51;20.30;;;8.77;;
72586;SDS011;60621;49.576;11.024;2023-03-01T05:15:56;19.70;;;8.70;;
72586;SDS011;60621;49.576;11.024;2023-03-01T05:16:59;19.42;;;8.52;;
72586;SDS011;60621;49.576;11.024;2023-03-01T05:18:05;18.33;;;8.50;;
72586;SDS011;60621;49.576;11.024;2023-03-01T05:19:12;23.13;;;9.48;;
72586;SDS011;60621;49.576;11.024;2023-03-01T05:20:16;21.65;;;9.00;;
72586;SDS011;60621;49.576;11.024;2023-03-01T05:21:18;21.17;;;9.63;;
72586;SDS011;60621;49.576;11.024;2023-03-01T05:22:19;21.13;;;9.85;;
72586;SDS011;60621;49.576;11.024;2023-03-01T05:23:22;21.90;;;9.63;;
72586;SDS011;60621;49.576;11.024;2023-03-01T05:24:24;25.05;;;9.98;;
72586;SDS011;60621;49.576;11.024;2023-03-01T05:25:26;20.10;;;9.27;;
72586;SDS011;60621;49.576;11.024;2023-03-01T05:26:28;21.50;;;9.35;;
72586;SDS011;60621;49.576;11.024;2023-03-01T05:27:29;19.80;;;9.55;;
72586;SDS011;60621;49.576;11.024;2023-03-01T05:28:31;18.48;;;9.18;;
72586;SDS011;60621;49.576;11.024;2023-03-01T05:29:33;17.67;;;8.70;;
72586;SDS011;60621;49.576;11.024;2023-03-01T05:30:36;20.05;;;9.55;;
72586;SDS011;60621;49.576;11.024;2023-03-01T05:31:40;18.23;;;9.07;;
72586;SDS011;60621;49.576;11.024;2023-03-01T05:32:42;18.42;;;9.13;;
72586;SDS011;60621;49.576;11.024;2023-03-01T05:33:45;19.63;;;8.73;;
72586;SDS011;60621;49.576;11.024;2023-03-01T05:34:47;20.73;;;9.35;;
72586;SDS011;60621;49.576;11.024;2023-03-01T05:35:48;21.08;;;9.32;;
72586;SDS011;60621;49.576;11.024;2023-03-01T05:36:51;18.77;;;8.95;;
72586;SDS011;60621;49.576;11.024;2023-03-01T05:37:54;19.23;;;9.25;;
72586;SDS011;60621;49.576;11.024;2023-03-01T05:38:55;21.20;;;9.98;;
72586;SDS011;60621;49.576;11.024;2023-03-01T05:39:57;21.40;;;9.48;;
72586;SDS011;60621;49.576;11.024;2023-03-01T05:40:59;21.10;;;9.57;;
72586;SDS011;60621;49.576;11.024;2023-03-01T05:42:00;21.55;;;9.27;;
72586;SDS011;60621;49.576;11.024;2023-03-01T05:43:02;19.75;;;8.43;;
72586;SDS011;60621;49.576;11.024;2023-03-01T05:44:06;19.95;;;9.15;;
72586;SDS011;60621;49.576;11.024;2023-03-01T05:45:08;20.90;;;9.30;;
72586;SDS011;60621;49.576;11.024;2023-03-01T05:46:10;56.08;;;26.20;;
72586;SDS011;60621;49.576;11.024;2023-03-01T05:47:14;55.38;;;24.05;;
72586;SDS011;60621;49.576;11.024;2023-03-01T05:48:16;64.53;;;26.90;;
72586;SDS011;60621;49.576;11.024;2023-03-01T05:49:17;86.93;;;35.58;;
72586;SDS011;60621;49.576;11.024;2023-03-01T05:50:21;112.97;;;40.55;;
72586;SDS011;60621;49.576;11.024;2023-03-01T05:51:26;39.95;;;17.33;;
72586;SDS011;60621;49.576;11.024;2023-03-01T05:52:27;26.48;;;11.07;;
72586;SDS011;60621;49.576;11.024;2023-03-01T05:53:29;23.27;;;10.20;;
72586;SDS011;60621;49.576;11.024;2023-03-01T05:54:30;24.33;;;10.32;;
72586;SDS011;60621;49.576;11.024;2023-03-01T05:55:32;20.80;;;9.57;;
72586;SDS011;60621;49.576;11.024;2023-03-01T05:56:34;22.02;;;10.48;;
72586;SDS011;60621;49.576;11.024;2023-03-01T05:57:36;22.75;;;9.80;;
72586;SDS011;60621;49.576;11.024;2023-03-01T05:58:38;22.70;;;10.07;;
72586;SDS011;60621;49.576;11.024;2023-03-01T05:59:39;23.30;;;9.88;;
72586;SDS011;60621;49.576;11.024;2023-03-01T06:00:42;22.65;;;9.73;;
72586;SDS011;60621;49.576;11.024;2023-03-01T06:02:46;24.58;;;9.65;;
72586;SDS011;60621;49.576;11.024;2023-03-01T06:03:47;23.88;;;9.52;;
72586;SDS011;60621;49.576;11.024;2023-03-01T06:04:49;20.63;;;9.27;;
72586;SDS011;60621;49.576;11.024;2023-03-01T06:05:55;21.98;;;9.55;;
72586;SDS011;60621;49.576;11.024;2023-03-01T06:06:57;20.10;;;9.60;;
72586;SDS011;60621;49.576;11.024;2023-03-01T06:07:59;26.77;;;11.15;;
72586;SDS011;60621;49.576;11.024;2023-03-01T06:09:01;23.23;;;10.00;;
72586;SDS011;60621;49.576;11.024;2023-03-01T06:10:03;21.27;;;10.05;;
72586;SDS011;60621;49.576;11.024;2023-03-01T06:11:06;20.20;;;9.50;;
72586;SDS011;60621;49.576;11.024;2023-03-01T06:12:08;22.38;;;9.85;;
72586;SDS011;60621;49.576;11.024;2023-03-01T06:13:10;22.70;;;10.20;;
72586;SDS011;60621;49.576;11.024;2023-03-01T06:14:11;22.27;;;10.50;;
72586;SDS011;60621;49.576;11.024;2023-03-01T06:15:16;22.27;;;9.90;;
72586;SDS011;60621;49.576;11.024;2023-03-01T06:16:17;23.40;;;9.40;;
72586;SDS011;60621;49.576;11.024;2023-03-01T06:17:19;21.50;;;10.35;;
72586;SDS011;60621;49.576;11.024;2023-03-01T06:18:20;21.40;;;9.63;;
72586;SDS011;60621;49.576;11.024;2023-03-01T06:19:22;23.08;;;10.85;;
72586;SDS011;60621;49.576;11.024;2023-03-01T06:20:24;22.27;;;9.88;;
72586;SDS011;60621;49.576;11.024;2023-03-01T06:21:27;22.30;;;10.20;;
72586;SDS011;60621;49.576;11.024;2023-03-01T06:22:28;23.15;;;9.75;;
72586;SDS011;60621;49.576;11.024;2023-03-01T06:23:30;23.63;;;10.20;;
72586;SDS011;60621;49.576;11.024;2023-03-01T06:24:31;21.58;;;9.27;;
72586;SDS011;60621;49.576;11.024;2023-03-01T06:25:34;21.00;;;9.98;;
72586;SDS011;60621;49.576;11.024;2023-03-01T06:26:35;25.70;;;10.20;;
72586;SDS011;60621;49.576;11.024;2023-03-01T06:27:37;22.10;;;10.13;;